createdAt,value
2022-08-24T00:02:53.008Z,74.30
2022-08-24T00:04:47.102Z,74.60
2022-08-24T00:09:57.134Z,74.73
2022-08-24T00:11:26.114Z,74.84
2022-08-24T00:13:16.814Z,75.04
2022-08-24T00:17:08.656Z,75.63
2022-08-24T00:22:23.743Z,75.84
2022-08-24T00:25:19.485Z,75.67
2022-08-24T00:28:25.212Z,76.07
2022-08-24T00:30:11.819Z,76.17
2022-08-24T00:35:54.489Z,76.28
2022-08-24T00:46:26.771Z,77.48
2022-08-24T00:52:05.209Z,77.41
2022-08-24T00:58:03.746Z,77.31
2022-08-24T01:00:02.595Z,77.41
2022-08-24T01:01:37.050Z,77.31
2022-08-24T01:03:25.552Z,77.41
2022-08-24T01:08:15.362Z,77.31
2022-08-24T01:11:14.153Z,77.31
2022-08-24T01:15:07.818Z,77.55
2022-08-24T01:20:02.476Z,77.95
2022-08-24T01:21:05.293Z,77.85
2022-08-24T01:22:04.027Z,78.05
2022-08-24T01:25:50.629Z,78.15
2022-08-24T01:35:52.240Z,78.96
2022-08-24T01:39:46.302Z,78.89
2022-08-24T01:42:23.224Z,79.09
2022-08-24T01:49:17.321Z,79.49
2022-08-24T01:53:24.901Z,79.60
2022-08-24T02:01:49.661Z,80.43
2022-08-24T02:04:22.165Z,80.33
2022-08-24T02:06:12.519Z,80.33
2022-08-24T02:08:02.705Z,80.63
2022-08-24T02:11:31.673Z,80.43
2022-08-24T02:15:36.549Z,80.33
2022-08-24T02:17:09.605Z,80.43
2022-08-24T02:19:06.285Z,80.57
2022-08-24T02:23:12.823Z,80.68
2022-08-24T02:27:53.185Z,81.88
2022-08-24T02:30:12.206Z,82.28
2022-08-24T02:32:39.377Z,82.08
2022-08-24T02:34:22.796Z,81.88
2022-08-24T02:38:54.532Z,81.52
2022-08-24T02:42:23.876Z,81.62
2022-08-24T02:50:06.460Z,82.42
2022-08-24T02:55:05.988Z,83.23
2022-08-24T03:01:43.004Z,83.03
2022-08-24T03:03:10.354Z,82.92
2022-08-24T03:08:46.445Z,82.42
2022-08-24T03:12:02.672Z,82.62
2022-08-24T03:19:12.173Z,83.47
2022-08-24T03:22:20.515Z,83.67
2022-08-24T03:25:51.653Z,83.97
2022-08-24T03:27:32.882Z,84.17
2022-08-24T03:32:06.855Z,84.17
2022-08-24T03:35:11.944Z,84.57
2022-08-24T03:40:32.579Z,84.61
2022-08-24T03:44:52.761Z,85.02
2022-08-24T03:46:37.331Z,85.02
2022-08-24T03:48:43.549Z,84.71
2022-08-24T03:50:36.992Z,84.51
2022-08-24T03:52:19.619Z,84.31
2022-08-24T03:54:03.489Z,84.31
2022-08-24T03:56:21.333Z,84.11
2022-08-24T04:00:38.985Z,84.11
2022-08-24T04:07:21.091Z,84.31
2022-08-24T04:10:50.614Z,84.21
2022-08-24T04:12:44.854Z,84.31
2022-08-24T04:18:41.229Z,84.61
2022-08-24T04:24:04.888Z,84.75
2022-08-24T04:33:20.618Z,84.95
2022-08-24T04:39:56.997Z,85.16
2022-08-24T04:42:15.357Z,85.16
2022-08-24T04:44:32.728Z,85.46
2022-08-24T04:46:21.834Z,85.46
2022-08-24T04:47:51.517Z,85.86
2022-08-24T04:49:42.217Z,86.06
2022-08-24T04:51:14.066Z,85.96
2022-08-24T04:53:29.967Z,86.57
2022-08-24T04:55:49.084Z,86.36
2022-08-24T04:57:39.618Z,86.16
2022-08-24T04:59:29.438Z,86.06
2022-08-24T05:01:17.686Z,86.46
2022-08-24T05:06:04.907Z,86.97
2022-08-24T05:07:35.810Z,86.87
2022-08-24T05:18:19.247Z,86.26
2022-08-24T05:24:44.400Z,86.06
2022-08-24T05:29:26.588Z,86.16
2022-08-24T05:33:11.708Z,86.26
2022-08-24T05:36:01.193Z,86.22
2022-08-24T05:38:45.827Z,86.43
2022-08-24T05:41:17.237Z,86.52
2022-08-24T05:43:07.718Z,86.72
2022-08-24T05:44:57.635Z,86.72
2022-08-24T05:47:25.754Z,86.79
2022-08-24T05:55:29.031Z,87.19
2022-08-24T05:57:28.916Z,87.29
2022-08-24T06:01:25.441Z,86.85
2022-08-24T06:06:36.117Z,85.84
2022-08-24T06:08:41.663Z,86.24
2022-08-24T06:10:33.231Z,86.40
2022-08-24T06:12:07.436Z,86.60
2022-08-24T06:14:29.765Z,86.40
2022-08-24T06:17:45.612Z,86.10
2022-08-24T06:19:45.328Z,85.96
2022-08-24T06:25:32.211Z,84.45
2022-08-24T06:28:06.457Z,84.45
2022-08-24T06:37:05.005Z,84.01
2022-08-24T06:41:20.773Z,84.88
2022-08-24T06:45:48.826Z,84.13
2022-08-24T06:57:20.544Z,82.59
2022-08-24T06:58:49.567Z,83.35
2022-08-24T07:09:29.255Z,81.11
2022-08-24T07:10:57.886Z,80.36
2022-08-24T07:12:30.443Z,82.07
2022-08-24T07:14:57.036Z,82.13
2022-08-24T07:18:07.361Z,81.53
2022-08-24T07:22:23.275Z,79.09
2022-08-24T07:23:53.145Z,80.89
2022-08-24T07:27:22.162Z,79.05
2022-08-24T07:35:02.725Z,76.42
2022-08-24T07:37:40.714Z,76.08
2022-08-24T07:39:00.749Z,75.89
2022-08-24T07:41:33.724Z,74.95
2022-08-24T07:46:36.227Z,75.27
2022-08-24T07:48:05.414Z,76.27
2022-08-24T07:49:39.563Z,75.27
2022-08-24T07:51:04.067Z,72.28
2022-08-24T07:53:43.768Z,69.66
2022-08-24T07:56:04.487Z,69.46
2022-08-24T07:58:59.916Z,69.23
2022-08-24T08:03:24.287Z,70.19
2022-08-24T08:05:22.093Z,69.20
2022-08-24T08:06:50.999Z,67.10
2022-08-24T08:08:20.214Z,67.86
2022-08-24T08:10:20.196Z,67.07
2022-08-24T08:14:42.869Z,64.85
2022-08-24T08:16:43.583Z,64.45
2022-08-24T08:19:40.319Z,66.11
2022-08-24T08:22:58.910Z,65.52
2022-08-24T08:24:27.854Z,65.28
2022-08-24T08:25:56.735Z,64.79
2022-08-24T08:27:26.623Z,65.58
2022-08-24T08:28:56.520Z,66.15
2022-08-24T08:31:43.233Z,63.67
2022-08-24T08:37:32.756Z,61.94
2022-08-24T08:43:57.045Z,62.71
2022-08-24T08:45:55.801Z,62.02
2022-08-24T08:48:06.912Z,63.18
2022-08-24T08:49:35.797Z,61.69
2022-08-24T08:51:34.586Z,60.20
2022-08-24T08:53:03.779Z,60.50
2022-08-24T08:57:30.846Z,60.37
2022-08-24T08:58:59.668Z,59.18
2022-08-24T09:01:17.345Z,58.16
2022-08-24T09:03:46.059Z,58.95
2022-08-24T09:05:14.952Z,59.55
2022-08-24T09:10:06.505Z,58.63
2022-08-24T09:12:04.450Z,58.83
2022-08-24T09:15:01.109Z,58.13
2022-08-24T09:18:55.813Z,58.63
2022-08-24T09:23:20.487Z,58.70
2022-08-24T09:24:50.395Z,58.20
2022-08-24T09:27:50.187Z,56.82
2022-08-24T09:29:18.556Z,58.30
2022-08-24T09:32:16.358Z,57.68
2022-08-24T09:34:32.463Z,57.29
2022-08-24T09:36:01.476Z,56.30
2022-08-24T09:38:28.334Z,56.99
2022-08-24T09:39:57.282Z,55.47
2022-08-24T09:42:53.912Z,57.35
2022-08-24T09:45:41.899Z,56.37
2022-08-24T09:50:20.230Z,56.14
2022-08-24T09:53:45.038Z,55.26
2022-08-24T09:56:02.680Z,55.52
2022-08-24T09:58:29.596Z,54.93
2022-08-24T10:01:55.443Z,56.91
2022-08-24T10:05:03.391Z,54.71
2022-08-24T10:07:53.158Z,55.10
2022-08-24T10:09:10.456Z,53.72
2022-08-24T10:11:39.193Z,58.43
2022-08-24T10:14:16.915Z,54.65
2022-08-24T10:16:06.634Z,53.67
2022-08-24T10:19:04.399Z,55.62
2022-08-24T10:20:33.219Z,55.71
2022-08-24T10:22:02.115Z,52.95
2022-08-24T10:23:32.485Z,51.05
2022-08-24T10:25:12.217Z,50.76
2022-08-24T10:29:18.041Z,55.26
2022-08-24T10:30:47.942Z,51.81
2022-08-24T10:36:30.397Z,53.56
2022-08-24T10:42:52.043Z,51.25
2022-08-24T10:44:50.400Z,51.81
2022-08-24T10:46:20.323Z,49.55
2022-08-24T10:49:36.176Z,51.22
2022-08-24T10:54:28.777Z,49.23
2022-08-24T10:59:57.321Z,49.01
2022-08-24T11:02:28.124Z,49.38
2022-08-24T11:05:24.038Z,47.61
2022-08-24T11:08:20.463Z,48.18
2022-08-24T11:10:17.918Z,48.74
2022-08-24T11:12:15.748Z,46.39
2022-08-24T11:13:48.286Z,47.77
2022-08-24T11:16:23.289Z,46.37
2022-08-24T11:17:54.370Z,46.66
2022-08-24T11:19:22.047Z,46.76
2022-08-24T11:21:12.676Z,45.68
2022-08-24T11:23:08.796Z,45.95
2022-08-24T11:24:41.149Z,48.21
2022-08-24T11:26:29.963Z,45.17
2022-08-24T11:29:05.356Z,44.66
2022-08-24T11:30:34.085Z,45.05
2022-08-24T11:33:20.657Z,43.77
2022-08-24T11:35:40.312Z,46.72
2022-08-24T11:37:10.294Z,46.11
2022-08-24T11:40:00.388Z,43.95
2022-08-24T11:41:31.783Z,46.30
2022-08-24T11:43:22.410Z,44.15
2022-08-24T11:45:20.305Z,45.79
2022-08-24T11:47:21.587Z,43.84
2022-08-24T11:49:41.313Z,45.10
2022-08-24T11:51:37.223Z,43.27
2022-08-24T12:00:35.042Z,43.66
2022-08-24T12:02:03.707Z,44.52
2022-08-24T12:05:45.544Z,43.93
2022-08-24T12:09:02.265Z,44.20
2022-08-24T12:12:00.791Z,42.15
2022-08-24T12:16:15.617Z,44.44
2022-08-24T12:17:44.599Z,43.95
2022-08-24T12:21:12.995Z,44.73
2022-08-24T12:24:22.683Z,44.37
2022-08-24T12:27:20.293Z,44.76
2022-08-24T12:28:54.295Z,45.95
2022-08-24T12:34:09.676Z,44.33
2022-08-24T12:39:34.796Z,45.80
2022-08-24T12:41:24.749Z,48.74
2022-08-24T12:44:48.246Z,46.02
2022-08-24T12:46:35.169Z,47.39
2022-08-24T12:50:08.982Z,47.69
2022-08-24T12:56:09.600Z,48.50
2022-08-24T12:58:40.646Z,48.18
2022-08-24T13:06:14.645Z,47.03
2022-08-24T13:09:15.293Z,49.48
2022-08-24T13:12:15.031Z,48.69
2022-08-24T13:17:42.214Z,46.93
2022-08-24T13:25:56.854Z,46.27
2022-08-24T13:28:25.725Z,45.86
2022-08-24T13:29:53.720Z,45.93
2022-08-24T13:32:11.781Z,44.56
2022-08-24T13:34:11.281Z,43.37
2022-08-24T13:36:37.670Z,44.83
2022-08-24T13:48:04.894Z,42.71
2022-08-24T13:50:33.608Z,42.22
2022-08-24T13:55:18.395Z,41.82
2022-08-24T13:59:15.114Z,42.30
2022-08-24T14:00:44.029Z,45.31
2022-08-24T14:03:13.007Z,41.21
2022-08-24T14:06:37.874Z,41.72
2022-08-24T14:11:22.532Z,41.60
2022-08-24T14:14:18.279Z,41.80
2022-08-24T14:16:37.120Z,39.96
2022-08-24T14:19:33.409Z,42.01
2022-08-24T14:22:21.453Z,42.19
2022-08-24T14:23:54.765Z,40.74
2022-08-24T14:25:44.579Z,42.32
2022-08-24T14:27:42.441Z,41.83
2022-08-24T14:29:11.044Z,42.52
2022-08-24T14:30:40.502Z,42.21
2022-08-24T14:32:12.720Z,41.41
2022-08-24T14:34:16.580Z,40.89
2022-08-24T14:36:01.121Z,39.65
2022-08-24T14:38:18.764Z,39.70
2022-08-24T14:41:14.531Z,40.39
2022-08-24T14:46:55.984Z,38.46
2022-08-24T14:50:13.624Z,39.20
2022-08-24T14:52:12.734Z,38.21
2022-08-24T15:01:20.408Z,40.91
2022-08-24T15:03:08.827Z,39.75
2022-08-24T15:08:48.655Z,39.29
2022-08-24T15:10:48.542Z,40.78
2022-08-24T15:12:16.112Z,41.38
2022-08-24T15:14:22.413Z,41.41
2022-08-24T15:16:21.555Z,40.25
2022-08-24T15:20:11.984Z,41.46
2022-08-24T15:24:08.015Z,42.46
2022-08-24T15:26:04.818Z,43.23
2022-08-24T15:28:35.899Z,40.68
2022-08-24T15:32:22.706Z,42.13
2022-08-24T15:34:43.096Z,42.74
2022-08-24T15:36:13.201Z,43.03
2022-08-24T15:38:44.139Z,42.83
2022-08-24T15:40:15.020Z,42.54
2022-08-24T15:42:15.219Z,41.66
2022-08-24T15:43:45.961Z,41.76
2022-08-24T15:45:14.118Z,41.66
2022-08-24T15:48:34.481Z,41.29
2022-08-24T15:51:37.503Z,42.15
2022-08-24T15:53:25.105Z,42.93
2022-08-24T15:57:32.419Z,41.36
2022-08-24T16:00:09.271Z,44.01
2022-08-24T16:04:21.171Z,41.66
2022-08-24T16:08:47.961Z,44.10
2022-08-24T16:10:53.824Z,41.27
2022-08-24T16:16:05.883Z,44.83
2022-08-24T16:18:53.953Z,44.76
2022-08-24T16:23:03.443Z,45.37
2022-08-24T16:25:24.502Z,45.56
2022-08-24T16:27:17.003Z,45.76
2022-08-24T16:29:36.232Z,45.78
2022-08-24T16:31:14.357Z,44.21
2022-08-24T16:32:45.551Z,43.62
2022-08-24T16:35:05.125Z,45.70
2022-08-24T16:38:23.921Z,47.47
2022-08-24T16:42:06.025Z,47.69
2022-08-24T16:45:23.791Z,46.51
2022-08-24T16:47:14.498Z,44.94
2022-08-24T16:49:31.837Z,44.94
2022-08-24T16:52:21.488Z,48.06
2022-08-24T16:54:19.780Z,47.67
2022-08-24T16:55:49.653Z,46.78
2022-08-24T16:58:23.600Z,49.73
2022-08-24T17:06:46.814Z,50.22
2022-08-24T17:12:44.241Z,50.32
2022-08-24T17:15:33.057Z,47.10
2022-08-24T17:17:02.983Z,48.38
2022-08-24T17:18:33.771Z,48.47
2022-08-24T17:21:53.167Z,48.86
2022-08-24T17:25:45.966Z,47.49
2022-08-24T17:28:49.251Z,47.39
2022-08-24T17:31:47.183Z,47.42
2022-08-24T17:33:47.099Z,48.21
2022-08-24T17:36:05.767Z,48.50
2022-08-24T17:37:35.631Z,46.24
2022-08-24T17:39:03.580Z,47.44
2022-08-24T17:44:33.256Z,48.23
2022-08-24T17:47:03.019Z,48.33
2022-08-24T17:49:49.608Z,49.04
2022-08-24T17:51:19.504Z,49.43
2022-08-24T17:52:50.483Z,48.74
2022-08-24T17:56:46.865Z,47.96
2022-08-24T17:58:43.081Z,48.94
2022-08-24T18:01:13.076Z,49.26
2022-08-24T18:11:33.269Z,48.59
2022-08-24T18:13:04.577Z,48.89
2022-08-24T18:16:42.972Z,50.26
2022-08-24T18:18:41.799Z,50.49
2022-08-24T18:20:10.725Z,49.80
2022-08-24T18:21:42.684Z,50.59
2022-08-24T18:24:02.375Z,51.28
2022-08-24T18:27:10.041Z,51.57
2022-08-24T18:29:03.063Z,52.16
2022-08-24T18:30:57.936Z,52.38
2022-08-24T18:35:43.850Z,51.50
2022-08-24T18:37:13.722Z,52.38
2022-08-24T18:40:23.390Z,52.11
2022-08-24T18:46:29.654Z,51.81
2022-08-24T18:50:24.134Z,53.52
2022-08-24T18:55:10.744Z,53.42
2022-08-24T19:01:57.023Z,54.82
2022-08-24T19:05:11.851Z,55.12
2022-08-24T19:09:10.115Z,55.64
2022-08-24T19:10:39.048Z,55.94
2022-08-24T19:12:08.892Z,55.94
2022-08-24T19:15:40.119Z,56.56
2022-08-24T19:18:56.673Z,56.56
2022-08-24T19:25:33.299Z,56.88
2022-08-24T19:28:28.172Z,57.47
2022-08-24T19:32:13.896Z,57.70
2022-08-24T19:36:22.852Z,57.50
2022-08-24T19:39:04.307Z,58.32
2022-08-24T19:40:56.614Z,58.12
2022-08-24T19:43:47.360Z,58.12
2022-08-24T19:45:20.077Z,58.54
2022-08-24T19:47:08.330Z,58.34
2022-08-24T19:52:06.435Z,58.84
2022-08-24T19:53:38.123Z,58.67
2022-08-24T20:00:48.209Z,58.67
2022-08-24T20:02:15.896Z,58.80
2022-08-24T20:09:27.075Z,58.60
2022-08-24T20:14:37.677Z,59.22
2022-08-24T20:16:07.313Z,59.42
2022-08-24T20:17:36.755Z,60.21
2022-08-24T20:21:30.164Z,59.72
2022-08-24T20:23:35.845Z,60.05
2022-08-24T20:26:36.371Z,60.74
2022-08-24T20:29:28.778Z,60.64
2022-08-24T20:34:51.134Z,61.46
2022-08-24T20:40:15.353Z,61.86
2022-08-24T20:41:47.147Z,61.99
2022-08-24T20:43:14.601Z,61.79
2022-08-24T20:47:15.410Z,61.89
2022-08-24T20:52:22.623Z,62.21
2022-08-24T20:54:23.573Z,62.91
2022-08-24T20:59:45.217Z,63.13
2022-08-24T21:01:45.252Z,63.24
2022-08-24T21:13:19.245Z,63.37
2022-08-24T21:17:11.257Z,62.67
2022-08-24T21:19:35.384Z,61.98
2022-08-24T21:21:04.781Z,61.98
2022-08-24T21:31:02.505Z,59.92
2022-08-24T21:37:44.237Z,59.03
2022-08-24T21:43:34.711Z,58.53
2022-08-24T21:48:07.027Z,58.23
2022-08-24T21:51:13.094Z,58.03
2022-08-24T21:52:51.272Z,57.81
2022-08-24T21:54:23.805Z,57.64
2022-08-24T21:56:17.490Z,57.64
2022-08-24T21:57:52.302Z,57.64
2022-08-24T22:00:29.708Z,57.34
2022-08-24T22:05:26.177Z,57.43
2022-08-24T22:07:26.633Z,57.14
2022-08-24T22:10:36.635Z,57.34
2022-08-24T22:12:38.789Z,57.14
2022-08-24T22:14:11.769Z,57.43
2022-08-24T22:18:21.655Z,57.53
2022-08-24T22:19:55.233Z,56.94
2022-08-24T22:22:24.756Z,57.56
2022-08-24T22:25:25.067Z,57.46
2022-08-24T22:30:25.999Z,56.77
2022-08-24T22:32:24.433Z,56.57
2022-08-24T22:34:42.764Z,56.77
2022-08-24T22:36:32.427Z,56.47
2022-08-24T22:39:49.538Z,56.00
2022-08-24T22:48:54.652Z,55.30
2022-08-24T22:50:23.575Z,55.40
2022-08-24T22:54:29.978Z,55.20
2022-08-24T22:57:19.954Z,55.10
2022-08-24T22:59:19.638Z,55.20
2022-08-24T23:02:08.410Z,54.71
2022-08-24T23:09:03.627Z,54.50
2022-08-24T23:14:17.321Z,54.33
2022-08-24T23:15:46.342Z,54.24
2022-08-24T23:19:12.049Z,53.34
2022-08-24T23:22:07.066Z,53.74
2022-08-24T23:25:54.132Z,53.74
2022-08-24T23:27:24.456Z,53.14
2022-08-24T23:28:55.944Z,53.14
2022-08-24T23:30:54.958Z,53.24
2022-08-24T23:34:26.236Z,53.24
2022-08-24T23:37:57.810Z,53.44
2022-08-24T23:52:30.660Z,53.44
2022-08-24T23:55:41.726Z,52.97
2022-08-24T23:57:08.900Z,53.06
